createdAt,value
2019-03-20T00:02:24.847Z,101910.71
2019-03-20T00:04:53.949Z,101899.80
2019-03-20T00:07:23.100Z,101905.24
2019-03-20T00:09:52.213Z,101896.45
2019-03-20T00:12:21.373Z,101896.45
2019-03-20T00:14:50.485Z,101902.81
2019-03-20T00:17:19.655Z,101905.33
2019-03-20T00:19:48.782Z,101906.55
2019-03-20T00:22:17.909Z,101904.75
2019-03-20T00:24:47.040Z,101895.52
2019-03-20T00:27:16.170Z,101895.52
2019-03-20T00:29:45.294Z,101905.94
2019-03-20T00:32:14.435Z,101900.14
2019-03-20T00:34:43.553Z,101902.92
2019-03-20T00:37:12.696Z,101905.41
2019-03-20T00:39:41.859Z,101903.02
2019-03-20T00:42:10.959Z,101895.04
2019-03-20T00:44:40.073Z,101900.19
2019-03-20T00:47:09.311Z,101898.45
2019-03-20T00:49:38.452Z,101908.45
2019-03-20T00:52:07.641Z,101906.84
2019-03-20T00:54:36.790Z,101903.52
2019-03-20T00:57:05.942Z,101907.33
2019-03-20T00:59:35.066Z,101906.52
2019-03-20T01:02:04.228Z,101899.84
2019-03-20T01:04:33.368Z,101899.75
2019-03-20T01:07:02.482Z,101903.60
2019-03-20T01:09:31.626Z,101901.80
2019-03-20T01:12:00.869Z,101904.72
2019-03-20T01:14:30.015Z,101903.73
2019-03-20T01:16:59.245Z,101903.55
2019-03-20T01:19:28.454Z,101887.75
2019-03-20T01:21:57.617Z,101896.95
2019-03-20T01:24:26.761Z,101899.97
2019-03-20T01:26:55.863Z,101904.67
2019-03-20T01:29:25.001Z,101895.80
2019-03-20T01:31:54.131Z,101897.90
2019-03-20T01:34:23.271Z,101903.02
2019-03-20T01:36:52.389Z,101912.12
2019-03-20T01:39:21.644Z,101906.83
2019-03-20T01:41:50.754Z,101902.87
2019-03-20T01:44:19.892Z,101914.89
2019-03-20T01:46:49.106Z,101913.00
2019-03-20T01:49:18.249Z,101915.60
2019-03-20T01:51:47.412Z,101909.01
2019-03-20T01:54:16.570Z,101908.52
2019-03-20T01:56:45.685Z,101904.12
2019-03-20T01:59:14.842Z,101904.34
2019-03-20T02:01:44.138Z,101911.65
2019-03-20T02:04:13.380Z,101910.88
2019-03-20T02:06:42.511Z,101917.95
2019-03-20T02:09:11.643Z,101915.06
2019-03-20T02:11:40.767Z,101905.78
2019-03-20T02:14:09.905Z,101910.48
2019-03-20T02:16:39.041Z,101910.48
2019-03-20T02:19:08.211Z,101907.39
2019-03-20T02:21:37.357Z,101913.08
2019-03-20T02:24:06.761Z,101913.08
2019-03-20T02:26:35.925Z,101910.48
2019-03-20T02:29:05.081Z,101909.18
2019-03-20T02:31:34.196Z,101913.89
2019-03-20T02:34:03.337Z,101913.89
2019-03-20T02:36:32.494Z,101912.09
2019-03-20T02:39:01.621Z,101910.80
2019-03-20T02:41:30.760Z,101911.20
2019-03-20T02:43:59.909Z,101914.10
2019-03-20T02:46:29.184Z,101910.14
2019-03-20T02:48:58.296Z,101914.45
2019-03-20T02:51:27.436Z,101920.36
2019-03-20T02:53:56.518Z,101919.17
2019-03-20T02:56:25.672Z,101923.30
2019-03-20T02:58:54.785Z,101928.80
2019-03-20T03:01:23.904Z,101925.30
2019-03-20T03:03:53.033Z,101925.92
2019-03-20T03:06:22.183Z,101927.71
2019-03-20T03:08:51.321Z,101929.02
2019-03-20T03:11:20.536Z,101926.81
2019-03-20T03:13:49.663Z,101931.52
2019-03-20T03:16:18.832Z,101925.77
2019-03-20T03:18:47.941Z,101928.36
2019-03-20T03:21:17.197Z,101927.38
2019-03-20T03:23:46.300Z,101919.97
2019-03-20T03:26:15.432Z,101917.28
2019-03-20T03:28:44.559Z,101919.88
2019-03-20T03:31:13.850Z,101925.88
2019-03-20T03:33:42.966Z,101925.78
2019-03-20T03:36:21.190Z,101921.39
2019-03-20T03:38:42.956Z,101923.00
2019-03-20T03:41:13.522Z,101915.91
2019-03-20T03:43:42.614Z,101922.41
2019-03-20T03:46:11.773Z,101927.20
2019-03-20T03:48:40.893Z,101928.00
2019-03-20T03:51:11.336Z,101932.70
2019-03-20T03:53:40.467Z,101928.21
2019-03-20T03:56:09.621Z,101928.52
2019-03-20T03:58:38.841Z,101928.45
2019-03-20T04:01:07.987Z,101932.75
2019-03-20T04:03:37.091Z,101934.45
2019-03-20T04:06:06.266Z,101928.56
2019-03-20T04:08:35.378Z,101930.17
2019-03-20T04:11:04.520Z,101931.37
2019-03-20T04:13:33.642Z,101923.88
2019-03-20T04:16:02.752Z,101925.58
2019-03-20T04:18:31.871Z,101924.38
2019-03-20T04:21:00.998Z,101929.08
2019-03-20T04:23:30.090Z,101929.88
2019-03-20T04:25:59.231Z,101930.38
2019-03-20T04:28:28.377Z,101929.28
2019-03-20T04:30:57.515Z,101928.39
2019-03-20T04:33:26.680Z,101930.39
2019-03-20T04:35:55.809Z,101929.83
2019-03-20T04:38:24.918Z,101926.44
2019-03-20T04:40:54.073Z,101922.14
2019-03-20T04:43:23.191Z,101925.55
2019-03-20T04:45:52.360Z,101928.44
2019-03-20T04:48:21.494Z,101928.25
2019-03-20T04:50:50.619Z,101932.45
2019-03-20T04:53:19.751Z,101926.25
2019-03-20T04:55:48.885Z,101927.16
2019-03-20T04:58:18.097Z,101932.75
2019-03-20T05:00:47.260Z,101932.95
2019-03-20T05:03:16.375Z,101935.23
2019-03-20T05:05:45.542Z,101936.94
2019-03-20T05:08:14.661Z,101940.62
2019-03-20T05:10:43.782Z,101944.63
2019-03-20T05:13:12.905Z,101944.92
2019-03-20T05:15:42.034Z,101949.22
2019-03-20T05:18:11.161Z,101946.53
2019-03-20T05:20:40.309Z,101944.73
2019-03-20T05:23:09.471Z,101945.43
2019-03-20T05:25:38.603Z,101941.14
2019-03-20T05:28:07.825Z,101946.13
2019-03-20T05:30:36.982Z,101955.63
2019-03-20T05:33:06.127Z,101959.02
2019-03-20T05:35:35.272Z,101963.02
2019-03-20T05:38:04.404Z,101968.81
2019-03-20T05:40:33.542Z,101968.11
2019-03-20T05:43:02.690Z,101972.10
2019-03-20T05:45:31.835Z,101974.50
2019-03-20T05:48:00.958Z,101974.20
2019-03-20T05:50:30.080Z,101982.48
2019-03-20T05:52:59.212Z,101980.39
2019-03-20T05:55:28.365Z,101980.48
2019-03-20T05:57:57.590Z,101983.74
2019-03-20T06:00:29.665Z,101987.04
2019-03-20T06:02:58.820Z,101991.33
2019-03-20T06:05:27.972Z,101990.72
2019-03-20T06:07:57.111Z,101997.08
2019-03-20T06:10:26.249Z,101993.47
2019-03-20T06:12:55.487Z,101998.96
2019-03-20T06:15:24.767Z,102002.25
2019-03-20T06:17:53.913Z,102003.20
2019-03-20T06:20:23.041Z,101997.98
2019-03-20T06:22:52.196Z,102004.38
2019-03-20T06:25:21.739Z,102006.70
2019-03-20T06:27:52.874Z,102013.47
2019-03-20T06:30:21.839Z,102014.09
2019-03-20T06:32:51.061Z,102009.95
2019-03-20T06:35:20.377Z,102015.55
2019-03-20T06:37:49.542Z,102008.55
2019-03-20T06:40:18.733Z,102009.70
2019-03-20T06:42:47.869Z,102012.44
2019-03-20T06:45:16.992Z,102010.75
2019-03-20T06:47:46.129Z,102000.45
2019-03-20T06:50:15.609Z,101998.88
2019-03-20T06:52:44.731Z,101992.94
2019-03-20T06:55:13.848Z,101988.08
2019-03-20T06:57:43.034Z,101978.50
2019-03-20T07:00:40.888Z,101978.55
2019-03-20T07:03:13.494Z,101975.53
2019-03-20T07:06:14.114Z,101974.93
2019-03-20T07:08:59.396Z,101974.59
2019-03-20T07:11:26.858Z,101978.66
2019-03-20T07:13:56.071Z,101978.03
2019-03-20T07:16:25.196Z,101975.19
2019-03-20T07:18:54.354Z,101972.78
2019-03-20T07:21:23.483Z,101974.84
2019-03-20T07:23:52.622Z,101971.48
2019-03-20T07:26:21.789Z,101971.21
2019-03-20T07:28:50.927Z,101971.72
2019-03-20T07:31:20.038Z,101983.49
2019-03-20T07:33:49.201Z,101976.41
2019-03-20T07:36:18.411Z,101968.08
2019-03-20T07:38:47.521Z,101977.05
2019-03-20T07:41:16.675Z,101977.05
2019-03-20T07:43:45.800Z,101974.84
2019-03-20T07:46:14.937Z,101978.30
2019-03-20T07:48:44.080Z,101985.13
2019-03-20T07:51:14.394Z,101982.95
2019-03-20T07:53:43.560Z,101988.00
2019-03-20T07:56:12.681Z,101996.11
2019-03-20T07:58:41.886Z,101996.25
2019-03-20T08:01:12.340Z,102002.09
2019-03-20T08:03:41.485Z,101999.81
2019-03-20T08:06:10.741Z,101999.81
2019-03-20T08:08:39.858Z,102009.55
2019-03-20T08:11:09.168Z,102001.98
2019-03-20T08:13:38.264Z,102006.63
2019-03-20T08:16:07.428Z,102010.77
2019-03-20T08:18:36.577Z,102019.13
2019-03-20T08:21:05.822Z,102014.61
2019-03-20T08:23:34.951Z,102020.57
2019-03-20T08:26:04.200Z,102021.03
2019-03-20T08:28:33.359Z,102021.75
2019-03-20T08:31:02.506Z,102021.99
2019-03-20T08:33:31.647Z,102023.75
2019-03-20T08:36:00.775Z,102026.34
2019-03-20T08:38:29.933Z,102018.48
2019-03-20T08:40:59.077Z,102026.45
2019-03-20T08:43:28.214Z,102023.50
2019-03-20T08:45:57.456Z,102023.50
2019-03-20T08:48:26.597Z,102025.75
2019-03-20T08:50:55.737Z,102030.13
2019-03-20T08:53:24.859Z,102024.02
2019-03-20T08:55:54.023Z,102026.33
2019-03-20T08:58:23.178Z,102025.47
2019-03-20T09:00:52.319Z,102021.20
2019-03-20T09:03:21.482Z,102012.70
2019-03-20T09:05:50.719Z,102010.06
2019-03-20T09:08:28.932Z,102018.19
2019-03-20T09:10:50.796Z,102014.80
2019-03-20T09:13:19.927Z,102007.80
2019-03-20T09:15:49.081Z,102006.95
2019-03-20T09:18:18.219Z,102000.83
2019-03-20T09:20:47.353Z,101996.70
2019-03-20T09:23:16.470Z,101994.34
2019-03-20T09:25:45.610Z,101999.60
2019-03-20T09:28:14.995Z,101997.34
2019-03-20T09:30:44.139Z,102004.18
2019-03-20T09:33:13.291Z,102003.23
2019-03-20T09:35:42.424Z,102000.98
2019-03-20T09:38:11.529Z,102001.09
2019-03-20T09:40:40.653Z,102000.78
2019-03-20T09:43:09.832Z,102010.81
2019-03-20T09:45:38.997Z,102008.94
2019-03-20T09:48:08.135Z,102006.97
2019-03-20T09:50:37.449Z,101998.60
2019-03-20T09:53:06.592Z,102012.87
2019-03-20T09:55:35.719Z,102003.37
2019-03-20T09:58:11.567Z,102006.94
2019-03-20T10:00:35.690Z,102006.97
2019-03-20T10:03:04.821Z,102002.11
2019-03-20T10:05:33.941Z,101994.42
2019-03-20T10:08:03.097Z,101992.39
2019-03-20T10:10:32.216Z,101990.86
2019-03-20T10:13:01.323Z,101984.44
2019-03-20T10:15:30.469Z,101983.05
2019-03-20T10:17:59.620Z,101984.71
2019-03-20T10:20:28.764Z,101984.11
2019-03-20T10:22:57.908Z,101977.02
2019-03-20T10:25:27.012Z,101978.73
2019-03-20T10:27:56.162Z,101981.54
2019-03-20T10:30:25.468Z,101982.34
2019-03-20T10:32:54.619Z,101980.05
2019-03-20T10:35:23.795Z,101975.66
2019-03-20T10:37:52.923Z,101977.66
2019-03-20T10:40:22.081Z,101975.30
2019-03-20T10:42:51.194Z,101980.94
2019-03-20T10:45:20.416Z,101982.64
2019-03-20T10:47:52.545Z,101983.39
2019-03-20T10:50:21.541Z,101981.13
2019-03-20T10:52:50.821Z,101980.25
2019-03-20T10:55:19.990Z,101986.42
2019-03-20T10:57:49.126Z,101981.83
2019-03-20T11:00:19.743Z,101984.81
2019-03-20T11:02:49.078Z,101988.75
2019-03-20T11:05:18.779Z,101990.91
2019-03-20T11:07:48.026Z,101989.44
2019-03-20T11:10:19.663Z,101994.34
2019-03-20T11:12:48.799Z,101993.58
2019-03-20T11:15:18.087Z,102000.79
2019-03-20T11:17:47.325Z,102000.20
2019-03-20T11:20:17.250Z,102004.16
2019-03-20T11:22:46.589Z,101998.98
2019-03-20T11:25:16.997Z,101998.56
2019-03-20T11:27:46.125Z,102005.85
2019-03-20T11:30:22.563Z,102005.16
2019-03-20T11:32:51.801Z,102007.70
2019-03-20T11:35:21.181Z,102001.55
2019-03-20T11:37:50.313Z,102005.42
2019-03-20T11:40:21.939Z,102002.75
2019-03-20T11:42:51.086Z,102004.36
2019-03-20T11:45:20.404Z,102002.09
2019-03-20T11:47:49.520Z,102003.55
2019-03-20T11:50:27.264Z,102002.09
2019-03-20T11:52:56.411Z,101994.57
2019-03-20T11:55:25.542Z,101998.64
2019-03-20T11:57:54.702Z,102000.85
2019-03-20T12:00:24.182Z,101996.46
2019-03-20T12:02:53.340Z,102001.91
2019-03-20T12:05:22.514Z,101914.71
2019-03-20T12:07:51.659Z,102005.70
2019-03-20T12:10:21.817Z,102006.22
2019-03-20T12:12:50.970Z,102005.81
2019-03-20T12:15:20.170Z,102008.95
2019-03-20T12:17:49.354Z,102007.64
2019-03-20T12:20:19.319Z,102005.47
2019-03-20T12:22:48.789Z,102008.59
2019-03-20T12:25:28.078Z,102009.97
2019-03-20T12:27:57.274Z,102005.56
2019-03-20T12:30:27.686Z,102004.66
2019-03-20T12:32:56.811Z,102008.66
2019-03-20T12:35:27.357Z,102012.66
2019-03-20T12:37:56.526Z,102006.02
2019-03-20T12:40:27.333Z,102005.56
2019-03-20T12:42:56.885Z,102001.09
2019-03-20T12:45:31.073Z,102009.51
2019-03-20T12:48:00.203Z,102009.95
2019-03-20T12:50:29.315Z,102017.51
2019-03-20T12:53:01.394Z,102018.84
2019-03-20T12:55:31.079Z,102012.63
2019-03-20T12:58:00.533Z,102017.95
2019-03-20T13:00:29.685Z,102017.95
2019-03-20T13:02:58.800Z,102026.37
2019-03-20T13:05:27.921Z,102025.95
2019-03-20T13:08:05.309Z,102029.05
2019-03-20T13:10:28.065Z,102033.92
2019-03-20T13:12:57.198Z,102035.67
2019-03-20T13:15:26.542Z,102034.77
2019-03-20T13:17:56.394Z,102036.53
2019-03-20T13:20:25.854Z,102032.97
2019-03-20T13:23:00.888Z,102034.27
2019-03-20T13:25:30.052Z,102035.59
2019-03-20T13:27:59.207Z,102032.48
2019-03-20T13:30:30.963Z,102032.48
2019-03-20T13:33:00.094Z,102029.83
2019-03-20T13:35:29.292Z,102028.94
2019-03-20T13:37:58.412Z,102036.47
2019-03-20T13:40:27.776Z,102023.08
2019-03-20T13:42:56.935Z,102027.06
2019-03-20T13:45:26.238Z,102021.73
2019-03-20T13:47:55.369Z,102026.11
2019-03-20T13:50:24.529Z,102027.83
2019-03-20T13:52:53.661Z,102030.45
2019-03-20T13:55:22.941Z,102028.69
2019-03-20T13:57:52.055Z,102035.81
2019-03-20T14:00:21.893Z,102033.60
2019-03-20T14:02:51.269Z,102030.89
2019-03-20T14:05:20.517Z,102027.40
2019-03-20T14:07:49.815Z,102028.72
2019-03-20T14:10:25.131Z,102028.23
2019-03-20T14:12:50.933Z,102023.79
2019-03-20T14:15:20.196Z,102033.91
2019-03-20T14:17:49.381Z,102032.57
2019-03-20T14:20:20.793Z,102030.33
2019-03-20T14:22:49.933Z,102028.98
2019-03-20T14:25:19.157Z,102032.53
2019-03-20T14:27:48.341Z,102030.34
2019-03-20T14:30:22.233Z,102029.48
2019-03-20T14:32:51.392Z,102024.19
2019-03-20T14:35:20.592Z,102024.62
2019-03-20T14:37:49.826Z,102020.18
2019-03-20T14:40:21.054Z,102017.92
2019-03-20T14:42:50.291Z,102020.15
2019-03-20T14:45:19.429Z,102023.23
2019-03-20T14:47:48.547Z,102019.26
2019-03-20T14:50:19.712Z,102014.86
2019-03-20T14:52:48.982Z,102015.30
2019-03-20T14:55:18.179Z,102010.90
2019-03-20T14:57:47.463Z,102006.94
2019-03-20T15:00:21.825Z,102001.20
2019-03-20T15:02:51.195Z,102005.20
2019-03-20T15:05:20.391Z,102008.34
2019-03-20T15:07:49.511Z,102000.37
2019-03-20T15:10:20.113Z,102001.72
2019-03-20T15:12:49.429Z,101996.42
2019-03-20T15:15:48.474Z,101998.63
2019-03-20T15:18:17.598Z,102003.90
2019-03-20T15:20:46.790Z,101998.53
2019-03-20T15:23:15.893Z,101991.41
2019-03-20T15:25:45.030Z,101998.09
2019-03-20T15:28:14.149Z,101998.05
2019-03-20T15:30:43.309Z,101990.08
2019-03-20T15:33:12.488Z,101992.73
2019-03-20T15:35:41.645Z,101996.70
2019-03-20T15:38:10.802Z,101988.28
2019-03-20T15:40:39.940Z,101986.92
2019-03-20T15:43:09.100Z,101982.93
2019-03-20T15:45:38.240Z,101981.56
2019-03-20T15:48:07.376Z,101981.56
2019-03-20T15:50:36.532Z,101985.10
2019-03-20T15:53:05.862Z,101981.53
2019-03-20T15:55:35.131Z,101987.30
2019-03-20T15:58:04.668Z,101986.37
2019-03-20T16:00:33.878Z,101982.78
2019-03-20T16:03:05.797Z,101986.75
2019-03-20T16:05:34.936Z,101991.17
2019-03-20T16:08:04.246Z,101986.72
2019-03-20T16:10:33.426Z,101985.38
2019-03-20T16:13:02.790Z,101984.92
2019-03-20T16:15:32.059Z,101979.58
2019-03-20T16:18:01.207Z,101992.87
2019-03-20T16:20:30.391Z,101993.30
2019-03-20T16:23:00.530Z,101996.80
2019-03-20T16:25:29.648Z,101992.75
2019-03-20T16:27:58.847Z,101998.47
2019-03-20T16:30:28.051Z,102000.64
2019-03-20T16:32:57.359Z,102001.94
2019-03-20T16:35:26.516Z,102007.67
2019-03-20T16:37:55.690Z,102005.02
2019-03-20T16:40:25.208Z,102004.11
2019-03-20T16:42:54.398Z,102008.09
2019-03-20T16:45:25.804Z,102010.23
2019-03-20T16:47:54.949Z,102014.66
2019-03-20T16:50:24.112Z,102009.36
2019-03-20T16:52:53.332Z,102009.28
2019-03-20T16:55:22.465Z,102005.30
2019-03-20T16:57:51.700Z,102003.07
2019-03-20T17:00:25.493Z,102007.50
2019-03-20T17:02:54.673Z,102002.18
2019-03-20T17:05:24.128Z,102011.02
2019-03-20T17:07:53.301Z,102017.22
2019-03-20T17:10:27.404Z,102013.20
2019-03-20T17:12:56.789Z,102010.53
2019-03-20T17:15:26.604Z,102012.25
2019-03-20T17:17:55.823Z,102018.02
2019-03-20T17:20:25.245Z,102019.77
2019-03-20T17:22:54.612Z,102010.36
2019-03-20T17:25:23.741Z,102011.66
2019-03-20T17:27:53.114Z,102017.78
2019-03-20T17:30:30.203Z,102013.77
2019-03-20T17:32:59.797Z,102013.69
2019-03-20T17:35:29.046Z,102010.92
2019-03-20T17:37:58.383Z,102015.31
2019-03-20T17:40:28.285Z,102016.17
2019-03-20T17:42:57.660Z,102018.75
2019-03-20T17:45:26.912Z,102023.09
2019-03-20T17:47:56.439Z,102023.05
2019-03-20T17:50:27.177Z,102024.78
2019-03-20T17:52:56.456Z,102027.34
2019-03-20T17:55:25.759Z,102023.73
2019-03-20T17:57:54.935Z,102027.20
2019-03-20T18:00:31.811Z,102021.43
2019-03-20T18:03:01.021Z,102025.34
2019-03-20T18:05:30.163Z,102022.61
2019-03-20T18:07:59.873Z,102026.52
2019-03-20T18:10:29.031Z,102039.72
2019-03-20T18:12:58.212Z,102042.27
2019-03-20T18:15:27.366Z,102045.28
2019-03-20T18:17:56.798Z,102041.63
2019-03-20T18:20:26.254Z,102055.24
2019-03-20T18:22:55.479Z,102060.43
2019-03-20T18:25:24.874Z,102062.99
2019-03-20T18:27:54.019Z,102067.26
2019-03-20T18:30:23.925Z,102074.63
2019-03-20T18:32:53.197Z,102074.14
2019-03-20T18:35:22.620Z,102077.19
2019-03-20T18:37:51.912Z,102084.20
2019-03-20T18:40:21.141Z,102082.80
2019-03-20T18:42:50.388Z,102091.94
2019-03-20T18:45:20.310Z,102099.82
2019-03-20T18:47:49.960Z,102093.60
2019-03-20T18:50:19.528Z,102098.37
2019-03-20T18:52:49.139Z,102100.13
2019-03-20T18:55:18.581Z,102095.70
2019-03-20T18:57:48.218Z,102099.61
2019-03-20T19:00:24.882Z,102100.47
2019-03-20T19:02:55.484Z,102105.76
2019-03-20T19:05:31.986Z,102105.27
2019-03-20T19:08:01.371Z,102103.05
2019-03-20T19:10:31.341Z,102096.77
2019-03-20T19:13:00.809Z,102098.09
2019-03-20T19:15:30.218Z,102104.70
2019-03-20T19:17:59.618Z,102104.67
2019-03-20T19:20:28.840Z,102105.96
2019-03-20T19:22:58.045Z,102105.03
2019-03-20T19:25:27.511Z,102101.03
2019-03-20T19:27:56.916Z,102101.86
2019-03-20T19:30:26.378Z,102101.37
2019-03-20T19:32:55.952Z,102104.73
2019-03-20T19:35:25.166Z,102100.14
2019-03-20T19:37:54.417Z,102103.08
2019-03-20T19:40:23.933Z,102102.00
2019-03-20T19:42:53.181Z,102102.29
2019-03-20T19:45:22.821Z,102102.65
2019-03-20T19:47:52.210Z,102103.86
2019-03-20T19:50:22.019Z,102107.75
2019-03-20T19:52:51.531Z,102111.68
2019-03-20T19:55:20.875Z,102108.85
2019-03-20T19:57:53.328Z,102109.16
2019-03-20T20:00:23.067Z,102107.73
2019-03-20T20:02:52.991Z,102104.16
2019-03-20T20:05:22.453Z,102104.04
2019-03-20T20:07:52.121Z,102090.33
2019-03-20T20:10:21.367Z,102092.00
2019-03-20T20:12:50.562Z,102090.14
2019-03-20T20:15:21.455Z,102088.31
2019-03-20T20:17:50.914Z,102089.52
2019-03-20T20:20:20.714Z,102094.21
2019-03-20T20:22:49.950Z,102002.11
2019-03-20T20:25:19.211Z,102098.28
2019-03-20T20:27:48.636Z,102105.09
2019-03-20T20:30:18.287Z,102099.14
2019-03-20T20:32:47.692Z,102107.40
2019-03-20T20:35:16.873Z,102108.25
2019-03-20T20:37:46.127Z,102109.95
2019-03-20T20:40:16.620Z,102111.70
2019-03-20T20:42:45.777Z,102109.91
2019-03-20T20:45:15.075Z,102109.91
2019-03-20T20:47:44.522Z,102115.19
2019-03-20T20:50:13.858Z,102113.27
2019-03-20T20:52:43.056Z,102113.27
2019-03-20T20:55:12.771Z,102108.00
2019-03-20T20:57:42.025Z,102115.02
2019-03-20T21:00:20.676Z,102115.48
2019-03-20T21:02:49.799Z,102110.25
2019-03-20T21:05:18.961Z,102104.55
2019-03-20T21:07:48.148Z,102105.02
2019-03-20T21:10:17.356Z,102103.23
2019-03-20T21:12:55.499Z,102101.44
2019-03-20T21:15:45.677Z,102103.66
2019-03-20T21:18:55.681Z,102101.83
2019-03-20T21:21:28.936Z,102096.50
2019-03-20T21:24:30.345Z,102097.78
2019-03-20T21:27:43.423Z,102102.16
2019-03-20T21:30:52.374Z,102111.73
2019-03-20T21:33:36.191Z,102108.31
2019-03-20T21:36:36.416Z,102109.88
2019-03-20T21:39:07.832Z,102111.95
2019-03-20T21:42:31.350Z,102114.03
2019-03-20T21:45:29.545Z,102109.05
2019-03-20T21:47:59.247Z,102118.88
2019-03-20T21:51:06.501Z,102117.29
2019-03-20T21:54:18.741Z,102120.62
2019-03-20T21:57:25.916Z,102126.97
2019-03-20T22:00:54.283Z,102128.99
2019-03-20T22:03:24.006Z,102125.82
2019-03-20T22:06:32.334Z,102132.36
2019-03-20T22:09:07.873Z,102127.46
2019-03-20T22:12:12.794Z,102129.53
2019-03-20T22:14:43.732Z,102130.70
2019-03-20T22:18:07.660Z,102136.60
2019-03-20T22:21:04.547Z,102141.62
2019-03-20T22:23:58.441Z,102141.41
2019-03-20T22:27:08.868Z,102142.61
2019-03-20T22:29:38.528Z,102144.72
2019-03-20T22:32:53.549Z,102143.77
2019-03-20T22:35:46.538Z,102140.95
2019-03-20T22:38:52.384Z,102146.20
2019-03-20T22:41:36.021Z,102144.52
2019-03-20T22:44:07.035Z,102154.86
2019-03-20T22:47:31.959Z,102156.55
2019-03-20T22:50:19.189Z,102157.28
2019-03-20T22:53:14.105Z,102159.33
2019-03-20T22:56:40.361Z,102158.43
2019-03-20T22:59:10.108Z,102163.89
2019-03-20T23:02:29.524Z,102168.38
2019-03-20T23:05:00.458Z,102166.59
2019-03-20T23:07:30.448Z,102167.54
2019-03-20T23:10:00.161Z,102164.02
2019-03-20T23:12:30.050Z,102161.50
2019-03-20T23:14:59.760Z,102166.81
2019-03-20T23:17:29.497Z,102162.87
2019-03-20T23:19:59.406Z,102163.17
2019-03-20T23:22:29.206Z,102168.38
2019-03-20T23:24:59.059Z,102170.90
2019-03-20T23:27:30.814Z,102174.73
2019-03-20T23:30:01.018Z,102182.03
2019-03-20T23:32:31.110Z,102184.19
2019-03-20T23:35:00.768Z,102175.03
2019-03-20T23:37:30.553Z,102173.11
2019-03-20T23:40:00.361Z,102183.80
2019-03-20T23:42:30.452Z,102181.76
2019-03-20T23:45:00.298Z,102184.47
2019-03-20T23:47:44.791Z,102180.69
2019-03-20T23:50:14.501Z,102179.91
2019-03-20T23:52:44.182Z,102179.17
2019-03-20T23:55:13.907Z,102178.39
2019-03-20T23:57:43.665Z,102170.60
